createdAt,value
2023-03-03T00:00:09.109Z,76.93
2023-03-03T00:02:36.048Z,76.54
2023-03-03T00:05:02.996Z,76.13
2023-03-03T00:07:29.885Z,75.49
2023-03-03T00:09:56.865Z,75.63
2023-03-03T00:12:27.004Z,75.00
2023-03-03T00:14:54.053Z,74.46
2023-03-03T00:17:24.939Z,74.44
2023-03-03T00:19:52.694Z,71.24
2023-03-03T00:22:36.330Z,72.07
2023-03-03T00:25:25.689Z,70.46
2023-03-03T00:27:52.607Z,72.38
2023-03-03T00:30:28.639Z,74.88
2023-03-03T00:32:55.983Z,77.78
2023-03-03T00:35:30.561Z,78.96
2023-03-03T00:38:02.518Z,79.28
2023-03-03T00:40:36.586Z,78.41
2023-03-03T00:43:20.260Z,77.96
2023-03-03T00:45:52.540Z,77.50
2023-03-03T00:48:42.516Z,77.98
2023-03-03T00:51:12.117Z,77.34
2023-03-03T00:53:39.440Z,77.58
2023-03-03T00:56:06.525Z,78.40
2023-03-03T00:58:33.402Z,78.91
2023-03-03T01:01:00.253Z,78.68
2023-03-03T01:03:27.550Z,78.87
2023-03-03T01:05:54.851Z,78.65
2023-03-03T01:08:22.632Z,77.94
2023-03-03T01:10:55.246Z,78.26
2023-03-03T01:13:25.129Z,76.90
2023-03-03T01:15:52.288Z,77.43
2023-03-03T01:18:19.429Z,77.64
2023-03-03T01:20:46.584Z,75.97
2023-03-03T01:23:13.675Z,75.06
2023-03-03T01:25:40.839Z,76.07
2023-03-03T01:28:07.782Z,78.15
2023-03-03T01:30:34.908Z,78.18
2023-03-03T01:33:01.824Z,78.01
2023-03-03T01:35:30.194Z,79.50
2023-03-03T01:37:57.560Z,79.18
2023-03-03T01:40:27.203Z,76.98
2023-03-03T01:42:54.133Z,75.52
2023-03-03T01:45:29.363Z,78.70
2023-03-03T01:48:05.507Z,79.36
2023-03-03T01:50:35.940Z,79.51
2023-03-03T01:53:05.421Z,79.72
2023-03-03T01:55:37.744Z,79.87
2023-03-03T01:58:08.195Z,79.27
2023-03-03T02:00:37.277Z,79.23
2023-03-03T02:03:04.940Z,79.35
2023-03-03T02:05:32.556Z,78.73
2023-03-03T02:07:59.672Z,80.02
2023-03-03T02:10:27.224Z,78.40
2023-03-03T02:12:56.723Z,79.72
2023-03-03T02:15:36.227Z,80.04
2023-03-03T02:18:17.428Z,80.23
2023-03-03T02:20:44.205Z,80.36
2023-03-03T02:23:24.044Z,80.45
2023-03-03T02:25:59.180Z,80.55
2023-03-03T02:28:31.826Z,80.36
2023-03-03T02:31:00.218Z,80.74
2023-03-03T02:33:27.819Z,80.88
2023-03-03T02:35:54.818Z,80.45
2023-03-03T02:38:35.400Z,80.28
2023-03-03T02:41:16.101Z,81.05
2023-03-03T02:44:03.050Z,81.38
2023-03-03T02:46:39.960Z,81.57
2023-03-03T02:49:08.822Z,81.37
2023-03-03T02:51:36.436Z,81.51
2023-03-03T02:54:03.774Z,80.80
2023-03-03T02:56:30.824Z,81.25
2023-03-03T02:58:57.849Z,81.30
2023-03-03T03:01:24.922Z,80.95
2023-03-03T03:03:51.946Z,80.96
2023-03-03T03:06:19.791Z,81.73
2023-03-03T03:08:46.716Z,82.53
2023-03-03T03:11:13.624Z,82.72
2023-03-03T03:13:40.616Z,83.03
2023-03-03T03:16:07.856Z,82.75
2023-03-03T03:18:34.747Z,82.64
2023-03-03T03:21:09.813Z,81.74
2023-03-03T03:23:36.860Z,81.77
2023-03-03T03:26:04.484Z,80.57
2023-03-03T03:28:31.455Z,81.47
2023-03-03T03:30:58.527Z,82.79
2023-03-03T03:33:25.518Z,82.34
2023-03-03T03:35:52.463Z,82.56
2023-03-03T03:38:19.385Z,82.73
2023-03-03T03:40:46.256Z,82.22
2023-03-03T03:43:13.175Z,83.24
2023-03-03T03:45:43.089Z,83.74
2023-03-03T03:48:10.042Z,83.93
2023-03-03T03:50:37.264Z,84.00
2023-03-03T03:53:04.434Z,81.61
2023-03-03T03:55:31.469Z,82.55
2023-03-03T03:57:58.760Z,83.48
2023-03-03T04:00:25.953Z,83.43
2023-03-03T04:02:52.972Z,83.00
2023-03-03T04:05:20.140Z,83.61
2023-03-03T04:07:46.998Z,81.33
2023-03-03T04:10:14.217Z,82.67
2023-03-03T04:12:41.107Z,82.92
2023-03-03T04:15:10.165Z,83.60
2023-03-03T04:17:37.164Z,85.70
2023-03-03T04:20:05.319Z,85.59
2023-03-03T04:22:36.132Z,85.60
2023-03-03T04:25:05.462Z,86.02
2023-03-03T04:27:36.398Z,85.88
2023-03-03T04:30:05.954Z,86.50
2023-03-03T04:32:34.200Z,82.37
2023-03-03T04:35:08.137Z,83.96
2023-03-03T04:37:36.354Z,82.49
2023-03-03T04:40:04.550Z,84.10
2023-03-03T04:42:31.516Z,84.18
2023-03-03T04:44:58.374Z,84.17
2023-03-03T04:47:25.033Z,83.90
2023-03-03T04:49:51.953Z,84.27
2023-03-03T04:52:18.850Z,83.98
2023-03-03T04:54:45.803Z,83.62
2023-03-03T04:57:12.698Z,83.17
2023-03-03T04:59:39.610Z,81.19
2023-03-03T05:02:06.450Z,81.93
2023-03-03T05:04:33.212Z,82.77
2023-03-03T05:07:00.099Z,82.16
2023-03-03T05:09:27.123Z,83.40
2023-03-03T05:11:54.316Z,85.99
2023-03-03T05:14:21.299Z,86.95
2023-03-03T05:16:48.215Z,87.91
2023-03-03T05:19:15.671Z,86.90
2023-03-03T05:21:42.895Z,86.68
2023-03-03T05:24:14.155Z,86.44
2023-03-03T05:26:41.685Z,85.54
2023-03-03T05:29:09.387Z,84.33
2023-03-03T05:31:36.424Z,84.27
2023-03-03T05:34:03.375Z,84.09
2023-03-03T05:36:30.554Z,83.77
2023-03-03T05:38:57.449Z,82.92
2023-03-03T05:41:24.370Z,83.45
2023-03-03T05:43:51.283Z,82.42
2023-03-03T05:46:18.164Z,80.70
2023-03-03T05:48:45.508Z,83.29
2023-03-03T05:51:12.394Z,83.85
2023-03-03T05:53:39.412Z,83.92
2023-03-03T05:56:06.644Z,83.94
2023-03-03T05:58:33.586Z,83.13
2023-03-03T06:01:00.505Z,82.60
2023-03-03T06:03:27.396Z,83.21
2023-03-03T06:05:54.366Z,80.55
2023-03-03T06:08:21.388Z,81.53
2023-03-03T06:10:48.372Z,82.55
2023-03-03T06:13:15.430Z,83.16
2023-03-03T06:15:42.409Z,83.42
2023-03-03T06:18:09.807Z,84.15
2023-03-03T06:20:36.859Z,84.66
2023-03-03T06:23:03.919Z,84.69
2023-03-03T06:25:30.785Z,84.41
2023-03-03T06:27:58.213Z,83.51
2023-03-03T06:30:27.123Z,83.06
2023-03-03T06:32:54.403Z,81.25
2023-03-03T06:35:21.358Z,80.60
2023-03-03T06:37:50.967Z,82.15
2023-03-03T06:40:18.130Z,81.99
2023-03-03T06:42:45.122Z,81.05
2023-03-03T06:45:12.408Z,82.33
2023-03-03T06:47:39.367Z,81.62
2023-03-03T06:50:07.113Z,81.33
2023-03-03T06:52:34.390Z,81.26
2023-03-03T06:55:02.774Z,82.41
2023-03-03T06:57:31.641Z,81.81
2023-03-03T07:00:17.546Z,83.53
2023-03-03T07:02:44.478Z,82.77
2023-03-03T07:05:15.674Z,82.80
2023-03-03T07:07:42.827Z,81.64
2023-03-03T07:10:26.598Z,84.57
2023-03-03T07:12:53.820Z,83.31
2023-03-03T07:15:25.485Z,81.88
2023-03-03T07:17:59.825Z,83.32
2023-03-03T07:20:36.358Z,82.79
2023-03-03T07:23:19.866Z,84.79
2023-03-03T07:25:46.887Z,85.88
2023-03-03T07:28:24.650Z,90.12
2023-03-03T07:30:54.694Z,88.70
2023-03-03T07:33:34.758Z,90.45
2023-03-03T07:36:02.756Z,92.09
2023-03-03T07:38:36.319Z,91.56
2023-03-03T07:41:11.776Z,90.85
2023-03-03T07:43:42.145Z,89.30
2023-03-03T07:46:17.677Z,90.36
2023-03-03T07:48:44.737Z,87.69
2023-03-03T07:51:37.784Z,88.29
2023-03-03T07:54:28.608Z,88.81
2023-03-03T07:57:23.400Z,87.36
2023-03-03T07:59:55.527Z,86.46
2023-03-03T08:02:46.236Z,88.82
2023-03-03T08:05:38.636Z,87.14
2023-03-03T08:08:33.886Z,89.16
2023-03-03T08:11:01.905Z,89.62
2023-03-03T08:13:34.929Z,90.09
2023-03-03T08:16:04.993Z,88.11
2023-03-03T08:18:53.446Z,88.50
2023-03-03T08:21:22.378Z,89.86
2023-03-03T08:23:53.414Z,88.32
2023-03-03T08:26:24.088Z,87.73
2023-03-03T08:28:51.234Z,87.85
2023-03-03T08:31:28.080Z,85.82
2023-03-03T08:34:01.850Z,85.26
2023-03-03T08:36:28.702Z,84.88
2023-03-03T08:38:55.771Z,82.76
2023-03-03T08:41:22.666Z,82.70
2023-03-03T08:43:49.596Z,83.27
2023-03-03T08:46:16.612Z,82.04
2023-03-03T08:48:43.490Z,81.01
2023-03-03T08:51:10.396Z,81.75
2023-03-03T08:53:38.409Z,81.05
2023-03-03T08:56:07.048Z,79.76
2023-03-03T08:58:35.942Z,80.41
2023-03-03T09:01:04.449Z,80.69
2023-03-03T09:03:31.662Z,80.43
2023-03-03T09:05:58.528Z,80.15
2023-03-03T09:08:25.414Z,80.89
2023-03-03T09:10:52.253Z,76.78
2023-03-03T09:13:19.517Z,76.01
2023-03-03T09:15:47.796Z,77.73
2023-03-03T09:18:20.602Z,76.11
2023-03-03T09:20:49.522Z,75.78
2023-03-03T09:23:39.901Z,74.43
2023-03-03T09:26:45.401Z,75.40
2023-03-03T09:29:15.257Z,71.95
2023-03-03T09:31:42.113Z,71.71
2023-03-03T09:34:36.899Z,73.47
2023-03-03T09:37:22.310Z,73.76
2023-03-03T09:39:52.163Z,69.75
2023-03-03T09:42:43.097Z,70.66
2023-03-03T09:45:39.006Z,70.14
2023-03-03T09:48:26.332Z,71.57
2023-03-03T09:51:13.081Z,70.67
2023-03-03T09:54:01.553Z,68.17
2023-03-03T09:56:42.584Z,67.13
2023-03-03T09:59:22.406Z,69.99
2023-03-03T10:02:56.072Z,68.26
2023-03-03T10:05:39.439Z,68.13
2023-03-03T10:08:24.980Z,67.17
2023-03-03T10:11:05.555Z,65.15
2023-03-03T10:14:05.538Z,65.72
2023-03-03T10:16:44.449Z,66.79
2023-03-03T10:19:34.380Z,67.28
2023-03-03T10:22:29.739Z,67.86
2023-03-03T10:25:23.092Z,69.57
2023-03-03T10:28:14.592Z,68.75
2023-03-03T10:31:12.492Z,67.63
2023-03-03T10:34:02.779Z,65.73
2023-03-03T10:36:47.321Z,64.86
2023-03-03T10:39:23.372Z,63.64
2023-03-03T10:42:03.405Z,63.28
2023-03-03T10:45:04.654Z,64.48
2023-03-03T10:48:08.663Z,61.92
2023-03-03T10:50:38.324Z,59.58
2023-03-03T10:53:15.364Z,62.26
2023-03-03T10:56:02.099Z,62.40
2023-03-03T10:58:45.193Z,59.87
2023-03-03T11:01:24.130Z,57.75
2023-03-03T11:03:55.590Z,59.74
2023-03-03T11:06:28.717Z,61.56
2023-03-03T11:09:00.944Z,64.96
2023-03-03T11:11:41.248Z,67.18
2023-03-03T11:14:37.295Z,67.87
2023-03-03T11:17:23.905Z,65.33
2023-03-03T11:20:12.260Z,67.84
2023-03-03T11:23:00.113Z,67.65
2023-03-03T11:25:26.840Z,68.55
2023-03-03T11:28:14.515Z,68.14
2023-03-03T11:31:13.433Z,69.14
2023-03-03T11:33:52.312Z,64.09
2023-03-03T11:36:39.426Z,62.34
2023-03-03T11:39:16.935Z,62.38
2023-03-03T11:42:14.477Z,61.04
2023-03-03T11:45:02.596Z,60.07
2023-03-03T11:47:38.401Z,61.54
2023-03-03T11:50:18.608Z,64.44
2023-03-03T11:53:30.076Z,65.59
2023-03-03T11:56:02.256Z,65.41
2023-03-03T11:59:20.304Z,66.77
2023-03-03T12:01:52.744Z,67.77
2023-03-03T12:04:23.066Z,68.14
2023-03-03T12:07:22.098Z,68.44
2023-03-03T12:10:24.477Z,67.84
2023-03-03T12:13:19.062Z,68.77
2023-03-03T12:15:48.791Z,67.14
2023-03-03T12:18:36.946Z,67.12
2023-03-03T12:21:25.937Z,66.60
2023-03-03T12:23:58.673Z,65.09
2023-03-03T12:26:34.838Z,65.90
2023-03-03T12:29:19.548Z,67.05
2023-03-03T12:32:39.220Z,66.59
2023-03-03T12:35:07.378Z,62.54
2023-03-03T12:37:52.330Z,64.64
2023-03-03T12:40:27.546Z,63.05
2023-03-03T12:43:03.500Z,62.22
2023-03-03T12:45:38.600Z,63.60
2023-03-03T12:48:32.755Z,61.96
2023-03-03T12:51:47.879Z,60.82
2023-03-03T12:54:27.362Z,61.55
2023-03-03T12:56:55.505Z,61.53
2023-03-03T12:59:28.382Z,61.17
2023-03-03T13:02:15.426Z,62.03
2023-03-03T13:05:10.865Z,61.79
2023-03-03T13:07:56.325Z,60.02
2023-03-03T13:10:39.283Z,61.93
2023-03-03T13:13:24.846Z,59.81
2023-03-03T13:16:11.285Z,58.39
2023-03-03T13:18:50.036Z,56.94
2023-03-03T13:21:42.530Z,60.70
2023-03-03T13:24:34.724Z,57.81
2023-03-03T13:27:12.440Z,56.00
2023-03-03T13:29:45.335Z,56.00
2023-03-03T13:32:23.223Z,54.85
2023-03-03T13:34:55.615Z,55.58
2023-03-03T13:37:43.680Z,53.85
2023-03-03T13:40:13.458Z,53.07
2023-03-03T13:42:51.173Z,52.49
2023-03-03T13:45:25.984Z,52.31
2023-03-03T13:48:06.736Z,50.77
2023-03-03T13:50:41.841Z,50.45
2023-03-03T13:53:27.569Z,52.42
2023-03-03T13:55:57.912Z,51.87
2023-03-03T13:58:46.861Z,50.37
2023-03-03T14:01:43.055Z,50.79
2023-03-03T14:04:28.590Z,52.20
2023-03-03T14:07:15.678Z,54.27
2023-03-03T14:09:48.955Z,59.04
2023-03-03T14:12:25.060Z,59.67
2023-03-03T14:15:17.539Z,57.78
2023-03-03T14:18:04.096Z,57.95
2023-03-03T14:20:33.534Z,57.82
2023-03-03T14:23:04.424Z,54.90
2023-03-03T14:25:52.878Z,53.82
2023-03-03T14:28:22.030Z,52.62
2023-03-03T14:30:49.315Z,52.10
2023-03-03T14:33:20.031Z,49.76
2023-03-03T14:35:59.078Z,49.19
2023-03-03T14:38:32.094Z,49.04
2023-03-03T14:41:11.285Z,49.10
2023-03-03T14:43:43.445Z,48.08
2023-03-03T14:46:33.678Z,48.20
2023-03-03T14:49:06.750Z,45.89
2023-03-03T14:51:40.101Z,46.39
2023-03-03T14:54:25.123Z,47.08
2023-03-03T14:57:01.707Z,46.58
2023-03-03T14:59:28.864Z,48.44
2023-03-03T15:02:01.688Z,49.89
2023-03-03T15:04:31.217Z,50.63
2023-03-03T15:06:59.429Z,50.32
2023-03-03T15:09:43.455Z,48.52
2023-03-03T15:12:33.085Z,47.02
2023-03-03T15:15:18.115Z,45.55
2023-03-03T15:17:54.722Z,45.96
2023-03-03T15:20:33.565Z,45.40
2023-03-03T15:23:09.115Z,44.45
2023-03-03T15:25:59.150Z,45.14
2023-03-03T15:28:38.288Z,45.87
2023-03-03T15:31:42.537Z,45.44
2023-03-03T15:34:37.793Z,44.71
2023-03-03T15:37:08.217Z,44.84
2023-03-03T15:40:14.811Z,44.59
2023-03-03T15:43:14.275Z,43.61
2023-03-03T15:46:16.412Z,44.06
2023-03-03T15:49:07.611Z,44.02
2023-03-03T15:51:53.782Z,42.94
2023-03-03T15:55:00.785Z,43.37
2023-03-03T15:57:53.718Z,43.42
2023-03-03T16:00:37.095Z,42.99
2023-03-03T16:03:28.494Z,43.02
2023-03-03T16:06:19.829Z,42.97
2023-03-03T16:09:12.955Z,42.88
2023-03-03T16:11:46.063Z,43.82
2023-03-03T16:14:36.808Z,44.32
2023-03-03T16:17:14.801Z,44.41
2023-03-03T16:20:00.692Z,45.36
2023-03-03T16:22:53.938Z,45.50
2023-03-03T16:25:55.282Z,44.83
2023-03-03T16:28:32.374Z,45.58
2023-03-03T16:31:05.143Z,45.36
2023-03-03T16:33:34.885Z,45.77
2023-03-03T16:36:01.861Z,44.89
2023-03-03T16:38:35.950Z,46.53
2023-03-03T16:41:13.804Z,47.55
2023-03-03T16:43:52.230Z,46.38
2023-03-03T16:46:26.052Z,46.46
2023-03-03T16:49:22.299Z,46.07
2023-03-03T16:51:59.105Z,45.68
2023-03-03T16:54:44.734Z,46.48
2023-03-03T16:57:35.770Z,46.58
2023-03-03T17:00:07.465Z,47.33
2023-03-03T17:02:55.410Z,47.45
2023-03-03T17:05:27.980Z,47.79
2023-03-03T17:08:03.165Z,47.93
2023-03-03T17:10:32.943Z,48.01
2023-03-03T17:13:21.797Z,47.06
2023-03-03T17:16:08.695Z,46.20
2023-03-03T17:19:00.492Z,46.03
2023-03-03T17:21:53.488Z,46.48
2023-03-03T17:24:51.292Z,46.87
2023-03-03T17:27:32.182Z,47.24
2023-03-03T17:30:31.037Z,47.80
2023-03-03T17:33:04.862Z,48.30
2023-03-03T17:35:51.744Z,48.45
2023-03-03T17:38:43.903Z,47.67
2023-03-03T17:41:49.283Z,48.41
2023-03-03T17:44:34.229Z,49.04
2023-03-03T17:47:06.240Z,48.91
2023-03-03T17:49:57.322Z,49.56
2023-03-03T17:52:33.247Z,50.35
2023-03-03T17:55:37.882Z,50.66
2023-03-03T17:58:27.700Z,51.46
2023-03-03T18:01:13.184Z,51.94
2023-03-03T18:03:52.698Z,51.12
2023-03-03T18:06:38.019Z,50.62
2023-03-03T18:09:14.647Z,50.57
2023-03-03T18:12:00.787Z,50.98
2023-03-03T18:14:45.850Z,51.46
2023-03-03T18:17:21.644Z,50.87
2023-03-03T18:20:07.073Z,50.80
2023-03-03T18:22:45.705Z,51.43
2023-03-03T18:25:17.159Z,52.01
2023-03-03T18:28:07.724Z,52.51
2023-03-03T18:30:52.913Z,53.12
2023-03-03T18:34:00.650Z,52.72
2023-03-03T18:36:27.450Z,53.33
2023-03-03T18:38:54.389Z,55.32
2023-03-03T18:41:29.556Z,54.70
2023-03-03T18:44:00.478Z,55.14
2023-03-03T18:46:27.300Z,54.56
2023-03-03T18:48:54.987Z,54.74
2023-03-03T18:51:40.332Z,54.88
2023-03-03T18:54:13.091Z,54.39
2023-03-03T18:56:53.532Z,53.34
2023-03-03T18:59:35.902Z,53.84
2023-03-03T19:02:49.730Z,54.58
2023-03-03T19:05:25.480Z,54.34
2023-03-03T19:08:29.541Z,55.33
2023-03-03T19:10:58.909Z,55.44
2023-03-03T19:13:34.883Z,55.04
2023-03-03T19:16:07.330Z,54.99
2023-03-03T19:18:35.690Z,54.00
2023-03-03T19:21:27.152Z,54.32
2023-03-03T19:24:00.746Z,53.94
2023-03-03T19:26:30.626Z,54.41
2023-03-03T19:29:22.366Z,54.99
2023-03-03T19:32:03.150Z,55.16
2023-03-03T19:34:39.663Z,54.49
2023-03-03T19:37:35.269Z,55.29
2023-03-03T19:40:20.732Z,55.63
2023-03-03T19:43:00.764Z,56.78
2023-03-03T19:45:58.322Z,55.86
2023-03-03T19:48:49.283Z,54.72
2023-03-03T19:51:28.409Z,55.94
2023-03-03T19:53:58.130Z,55.11
2023-03-03T19:56:38.277Z,56.02
2023-03-03T19:59:26.665Z,55.36
2023-03-03T20:02:03.841Z,55.52
2023-03-03T20:04:50.851Z,55.23
2023-03-03T20:07:24.302Z,56.87
2023-03-03T20:10:00.312Z,55.95
2023-03-03T20:12:39.523Z,55.86
2023-03-03T20:15:12.474Z,56.13
2023-03-03T20:17:52.406Z,56.49
2023-03-03T20:20:34.568Z,57.57
2023-03-03T20:23:16.687Z,56.88
2023-03-03T20:26:08.728Z,56.52
2023-03-03T20:29:17.346Z,55.17
2023-03-03T20:32:06.971Z,56.93
2023-03-03T20:35:05.626Z,56.13
2023-03-03T20:37:38.952Z,56.00
2023-03-03T20:40:21.024Z,54.60
2023-03-03T20:43:29.528Z,54.30
2023-03-03T20:46:08.008Z,54.60
2023-03-03T20:48:48.314Z,56.87
2023-03-03T20:51:33.279Z,60.69
2023-03-03T20:54:24.318Z,59.23
2023-03-03T20:57:19.873Z,58.68
2023-03-03T20:59:57.817Z,58.92
2023-03-03T21:02:40.236Z,59.99
2023-03-03T21:05:12.589Z,60.37
2023-03-03T21:07:51.745Z,61.63
2023-03-03T21:10:26.888Z,62.07
2023-03-03T21:12:55.930Z,63.55
2023-03-03T21:15:22.828Z,64.42
2023-03-03T21:17:49.832Z,64.72
2023-03-03T21:20:19.538Z,65.66
2023-03-03T21:22:46.752Z,67.64
2023-03-03T21:25:43.406Z,67.86
2023-03-03T21:28:20.238Z,67.16
2023-03-03T21:31:05.699Z,66.55
2023-03-03T21:33:53.325Z,66.18
2023-03-03T21:36:32.322Z,67.02
2023-03-03T21:39:02.242Z,67.69
2023-03-03T21:41:53.197Z,66.00
2023-03-03T21:44:51.665Z,65.78
2023-03-03T21:47:20.084Z,66.55
2023-03-03T21:49:48.845Z,66.45
2023-03-03T21:52:18.128Z,66.69
2023-03-03T21:54:46.902Z,66.05
2023-03-03T21:57:13.860Z,66.27
2023-03-03T21:59:41.165Z,67.45
2023-03-03T22:02:08.336Z,67.62
2023-03-03T22:04:35.296Z,67.30
2023-03-03T22:07:02.232Z,69.30
2023-03-03T22:09:28.953Z,70.84
2023-03-03T22:11:55.966Z,69.80
2023-03-03T22:14:22.828Z,70.55
2023-03-03T22:16:49.553Z,70.28
2023-03-03T22:19:16.446Z,71.59
2023-03-03T22:21:43.164Z,71.03
2023-03-03T22:24:10.070Z,70.16
2023-03-03T22:26:36.919Z,69.50
2023-03-03T22:29:03.845Z,71.00
2023-03-03T22:31:30.775Z,70.63
2023-03-03T22:33:57.690Z,69.81
2023-03-03T22:36:24.400Z,70.38
2023-03-03T22:38:51.471Z,70.29
2023-03-03T22:41:18.562Z,71.60
2023-03-03T22:43:45.874Z,71.61
2023-03-03T22:46:12.837Z,72.85
2023-03-03T22:48:39.991Z,71.54
2023-03-03T22:51:06.906Z,71.24
2023-03-03T22:53:33.777Z,69.90
2023-03-03T22:56:00.684Z,69.44
2023-03-03T22:58:27.369Z,69.82
2023-03-03T23:00:54.681Z,69.27
2023-03-03T23:03:21.882Z,68.21
2023-03-03T23:05:51.607Z,68.41
2023-03-03T23:08:19.656Z,68.26
2023-03-03T23:10:46.724Z,69.64
2023-03-03T23:13:13.912Z,71.28
2023-03-03T23:15:40.954Z,71.78
2023-03-03T23:18:07.985Z,72.60
2023-03-03T23:20:35.016Z,72.38
2023-03-03T23:23:01.885Z,72.90
2023-03-03T23:25:28.983Z,72.26
2023-03-03T23:27:56.366Z,71.62
2023-03-03T23:30:23.333Z,71.33
2023-03-03T23:32:50.836Z,70.25
2023-03-03T23:35:17.821Z,70.25
2023-03-03T23:37:45.172Z,69.37
2023-03-03T23:40:13.720Z,69.46
2023-03-03T23:42:40.821Z,68.02
2023-03-03T23:45:08.565Z,67.85
2023-03-03T23:47:35.498Z,70.61
2023-03-03T23:50:02.487Z,72.00
2023-03-03T23:52:29.382Z,71.09
2023-03-03T23:54:56.087Z,71.91
2023-03-03T23:57:22.935Z,71.47
2023-03-03T23:59:49.984Z,72.51
